sensor_id;sensor_type;location;lat;lon;timestamp;P1;durP1;ratioP1;P2;durP2;ratioP2
23608;SDS011;11982;50.810;4.442;2023-02-28T00:00:27;19.25;;;10.55;;
23608;SDS011;11982;50.810;4.442;2023-02-28T00:02:52;21.00;;;11.75;;
23608;SDS011;11982;50.810;4.442;2023-02-28T00:05:19;18.42;;;11.10;;
23608;SDS011;11982;50.810;4.442;2023-02-28T00:07:46;20.67;;;10.65;;
23608;SDS011;11982;50.810;4.442;2023-02-28T00:10:15;20.08;;;11.18;;
23608;SDS011;11982;50.810;4.442;2023-02-28T00:12:46;22.98;;;11.85;;
23608;SDS011;11982;50.810;4.442;2023-02-28T00:15:12;17.95;;;11.25;;
23608;SDS011;11982;50.810;4.442;2023-02-28T00:17:38;18.58;;;11.07;;
23608;SDS011;11982;50.810;4.442;2023-02-28T00:20:04;22.23;;;12.45;;
23608;SDS011;11982;50.810;4.442;2023-02-28T00:22:35;19.70;;;11.27;;
23608;SDS011;11982;50.810;4.442;2023-02-28T00:25:02;19.30;;;12.02;;
23608;SDS011;11982;50.810;4.442;2023-02-28T00:27:29;20.40;;;11.73;;
23608;SDS011;11982;50.810;4.442;2023-02-28T00:29:55;29.02;;;12.63;;
23608;SDS011;11982;50.810;4.442;2023-02-28T00:32:20;22.33;;;11.70;;
23608;SDS011;11982;50.810;4.442;2023-02-28T00:34:46;19.15;;;11.65;;
23608;SDS011;11982;50.810;4.442;2023-02-28T00:37:12;22.48;;;10.75;;
23608;SDS011;11982;50.810;4.442;2023-02-28T00:39:38;18.17;;;10.60;;
23608;SDS011;11982;50.810;4.442;2023-02-28T00:42:04;18.20;;;11.18;;
23608;SDS011;11982;50.810;4.442;2023-02-28T00:44:31;22.02;;;11.20;;
23608;SDS011;11982;50.810;4.442;2023-02-28T00:46:57;56.00;;;12.85;;
23608;SDS011;11982;50.810;4.442;2023-02-28T00:49:24;37.42;;;11.77;;
23608;SDS011;11982;50.810;4.442;2023-02-28T00:51:51;29.10;;;10.75;;
23608;SDS011;11982;50.810;4.442;2023-02-28T00:54:17;20.50;;;10.52;;
23608;SDS011;11982;50.810;4.442;2023-02-28T00:56:45;20.30;;;10.50;;
23608;SDS011;11982;50.810;4.442;2023-02-28T00:59:11;18.23;;;9.65;;
23608;SDS011;11982;50.810;4.442;2023-02-28T01:01:40;19.52;;;9.80;;
23608;SDS011;11982;50.810;4.442;2023-02-28T01:04:07;21.50;;;10.57;;
23608;SDS011;11982;50.810;4.442;2023-02-28T01:06:33;20.52;;;10.40;;
23608;SDS011;11982;50.810;4.442;2023-02-28T01:09:02;17.52;;;9.93;;
23608;SDS011;11982;50.810;4.442;2023-02-28T01:11:29;20.80;;;9.90;;
23608;SDS011;11982;50.810;4.442;2023-02-28T01:13:54;25.23;;;10.82;;
23608;SDS011;11982;50.810;4.442;2023-02-28T01:16:20;16.25;;;9.63;;
23608;SDS011;11982;50.810;4.442;2023-02-28T01:18:46;19.55;;;9.57;;
23608;SDS011;11982;50.810;4.442;2023-02-28T01:21:13;19.80;;;9.63;;
23608;SDS011;11982;50.810;4.442;2023-02-28T01:23:40;20.98;;;10.63;;
23608;SDS011;11982;50.810;4.442;2023-02-28T01:26:07;24.33;;;10.32;;
23608;SDS011;11982;50.810;4.442;2023-02-28T01:28:41;17.67;;;10.30;;
23608;SDS011;11982;50.810;4.442;2023-02-28T01:31:07;19.75;;;9.60;;
23608;SDS011;11982;50.810;4.442;2023-02-28T01:33:34;20.80;;;10.93;;
23608;SDS011;11982;50.810;4.442;2023-02-28T01:36:04;21.63;;;11.00;;
23608;SDS011;11982;50.810;4.442;2023-02-28T01:38:38;16.52;;;10.38;;
23608;SDS011;11982;50.810;4.442;2023-02-28T01:41:05;21.98;;;10.35;;
23608;SDS011;11982;50.810;4.442;2023-02-28T01:43:50;21.27;;;10.23;;
23608;SDS011;11982;50.810;4.442;2023-02-28T01:46:22;28.95;;;10.48;;
23608;SDS011;11982;50.810;4.442;2023-02-28T01:48:48;16.77;;;10.90;;
23608;SDS011;11982;50.810;4.442;2023-02-28T01:51:38;19.13;;;10.98;;
23608;SDS011;11982;50.810;4.442;2023-02-28T01:54:16;16.38;;;10.98;;
23608;SDS011;11982;50.810;4.442;2023-02-28T01:56:51;20.77;;;11.93;;
23608;SDS011;11982;50.810;4.442;2023-02-28T01:59:23;26.83;;;12.00;;
23608;SDS011;11982;50.810;4.442;2023-02-28T02:01:54;21.58;;;11.45;;
23608;SDS011;11982;50.810;4.442;2023-02-28T02:04:21;24.73;;;11.35;;
23608;SDS011;11982;50.810;4.442;2023-02-28T02:06:50;18.00;;;11.48;;
23608;SDS011;11982;50.810;4.442;2023-02-28T02:09:16;19.38;;;11.80;;
23608;SDS011;11982;50.810;4.442;2023-02-28T02:11:42;26.40;;;11.75;;
23608;SDS011;11982;50.810;4.442;2023-02-28T02:17:04;23.20;;;12.05;;
23608;SDS011;11982;50.810;4.442;2023-02-28T02:19:55;25.35;;;13.27;;
23608;SDS011;11982;50.810;4.442;2023-02-28T02:28:35;19.45;;;11.52;;
23608;SDS011;11982;50.810;4.442;2023-02-28T02:37:02;19.98;;;12.10;;
23608;SDS011;11982;50.810;4.442;2023-02-28T02:39:52;21.38;;;12.93;;
23608;SDS011;11982;50.810;4.442;2023-02-28T02:42:27;21.77;;;12.80;;
23608;SDS011;11982;50.810;4.442;2023-02-28T02:45:06;25.85;;;12.68;;
23608;SDS011;11982;50.810;4.442;2023-02-28T02:47:46;20.13;;;12.65;;
23608;SDS011;11982;50.810;4.442;2023-02-28T02:50:17;21.65;;;11.85;;
23608;SDS011;11982;50.810;4.442;2023-02-28T02:52:50;22.42;;;12.38;;
23608;SDS011;11982;50.810;4.442;2023-02-28T02:55:20;26.90;;;13.70;;
23608;SDS011;11982;50.810;4.442;2023-02-28T02:57:49;21.60;;;13.52;;
23608;SDS011;11982;50.810;4.442;2023-02-28T03:00:23;24.80;;;13.98;;
23608;SDS011;11982;50.810;4.442;2023-02-28T03:02:56;26.88;;;12.95;;
23608;SDS011;11982;50.810;4.442;2023-02-28T03:05:26;26.85;;;13.00;;
23608;SDS011;11982;50.810;4.442;2023-02-28T03:07:58;24.58;;;13.82;;
23608;SDS011;11982;50.810;4.442;2023-02-28T03:13:10;21.20;;;13.20;;
23608;SDS011;11982;50.810;4.442;2023-02-28T03:18:54;28.38;;;13.38;;
23608;SDS011;11982;50.810;4.442;2023-02-28T03:21:34;25.00;;;14.30;;
23608;SDS011;11982;50.810;4.442;2023-02-28T03:26:30;22.58;;;14.15;;
23608;SDS011;11982;50.810;4.442;2023-02-28T03:34:08;24.13;;;15.27;;
23608;SDS011;11982;50.810;4.442;2023-02-28T03:36:39;26.42;;;14.55;;
23608;SDS011;11982;50.810;4.442;2023-02-28T03:39:13;28.10;;;14.98;;
23608;SDS011;11982;50.810;4.442;2023-02-28T03:44:19;25.27;;;15.43;;
23608;SDS011;11982;50.810;4.442;2023-02-28T03:46:52;27.58;;;15.45;;
23608;SDS011;11982;50.810;4.442;2023-02-28T03:49:42;33.20;;;15.70;;
23608;SDS011;11982;50.810;4.442;2023-02-28T03:52:12;29.63;;;15.82;;
23608;SDS011;11982;50.810;4.442;2023-02-28T03:54:43;32.08;;;15.85;;
23608;SDS011;11982;50.810;4.442;2023-02-28T03:57:22;28.40;;;16.65;;
23608;SDS011;11982;50.810;4.442;2023-02-28T04:00:34;29.17;;;15.60;;
23608;SDS011;11982;50.810;4.442;2023-02-28T04:03:10;26.48;;;15.70;;
23608;SDS011;11982;50.810;4.442;2023-02-28T04:05:45;31.42;;;17.05;;
23608;SDS011;11982;50.810;4.442;2023-02-28T04:08:20;26.85;;;15.85;;
23608;SDS011;11982;50.810;4.442;2023-02-28T04:10:48;28.20;;;16.02;;
23608;SDS011;11982;50.810;4.442;2023-02-28T04:13:45;31.15;;;15.85;;
23608;SDS011;11982;50.810;4.442;2023-02-28T04:16:11;31.13;;;18.25;;
23608;SDS011;11982;50.810;4.442;2023-02-28T04:18:40;33.55;;;16.33;;
23608;SDS011;11982;50.810;4.442;2023-02-28T04:21:09;33.58;;;17.10;;
23608;SDS011;11982;50.810;4.442;2023-02-28T04:23:37;33.28;;;17.42;;
23608;SDS011;11982;50.810;4.442;2023-02-28T04:26:03;31.92;;;18.23;;
23608;SDS011;11982;50.810;4.442;2023-02-28T04:28:30;33.58;;;17.42;;
23608;SDS011;11982;50.810;4.442;2023-02-28T04:30:57;29.50;;;18.23;;
23608;SDS011;11982;50.810;4.442;2023-02-28T04:33:26;33.88;;;17.98;;
23608;SDS011;11982;50.810;4.442;2023-02-28T04:36:02;34.92;;;18.73;;
23608;SDS011;11982;50.810;4.442;2023-02-28T04:38:37;29.08;;;17.45;;
23608;SDS011;11982;50.810;4.442;2023-02-28T04:41:04;31.90;;;17.55;;
23608;SDS011;11982;50.810;4.442;2023-02-28T04:43:30;28.85;;;18.70;;
23608;SDS011;11982;50.810;4.442;2023-02-28T04:45:57;34.47;;;18.13;;
23608;SDS011;11982;50.810;4.442;2023-02-28T04:48:27;30.80;;;18.23;;
23608;SDS011;11982;50.810;4.442;2023-02-28T04:50:59;28.05;;;17.98;;
23608;SDS011;11982;50.810;4.442;2023-02-28T04:53:36;30.88;;;18.15;;
23608;SDS011;11982;50.810;4.442;2023-02-28T04:56:03;33.53;;;17.65;;
23608;SDS011;11982;50.810;4.442;2023-02-28T04:58:32;35.90;;;19.92;;
23608;SDS011;11982;50.810;4.442;2023-02-28T05:01:02;34.05;;;19.30;;
23608;SDS011;11982;50.810;4.442;2023-02-28T05:03:29;40.03;;;19.42;;
23608;SDS011;11982;50.810;4.442;2023-02-28T05:05:58;37.17;;;19.63;;
23608;SDS011;11982;50.810;4.442;2023-02-28T05:08:24;38.03;;;19.17;;
23608;SDS011;11982;50.810;4.442;2023-02-28T05:10:50;37.53;;;20.52;;
23608;SDS011;11982;50.810;4.442;2023-02-28T05:13:16;37.10;;;20.10;;
23608;SDS011;11982;50.810;4.442;2023-02-28T05:15:41;30.98;;;19.45;;
23608;SDS011;11982;50.810;4.442;2023-02-28T05:18:08;34.70;;;19.83;;
23608;SDS011;11982;50.810;4.442;2023-02-28T05:20:34;36.30;;;19.92;;
23608;SDS011;11982;50.810;4.442;2023-02-28T05:22:59;32.85;;;19.55;;
23608;SDS011;11982;50.810;4.442;2023-02-28T05:25:26;33.60;;;19.85;;
23608;SDS011;11982;50.810;4.442;2023-02-28T05:27:51;32.63;;;20.42;;
23608;SDS011;11982;50.810;4.442;2023-02-28T05:30:17;35.85;;;19.20;;
23608;SDS011;11982;50.810;4.442;2023-02-28T05:32:43;31.70;;;19.30;;
23608;SDS011;11982;50.810;4.442;2023-02-28T05:35:09;36.75;;;20.42;;
23608;SDS011;11982;50.810;4.442;2023-02-28T05:37:36;34.90;;;19.52;;
23608;SDS011;11982;50.810;4.442;2023-02-28T05:40:03;37.10;;;19.27;;
23608;SDS011;11982;50.810;4.442;2023-02-28T05:42:35;33.20;;;18.17;;
23608;SDS011;11982;50.810;4.442;2023-02-28T05:45:01;30.33;;;18.35;;
23608;SDS011;11982;50.810;4.442;2023-02-28T05:47:27;29.67;;;19.20;;
23608;SDS011;11982;50.810;4.442;2023-02-28T05:49:53;40.00;;;18.45;;
23608;SDS011;11982;50.810;4.442;2023-02-28T05:52:19;40.42;;;19.33;;
23608;SDS011;11982;50.810;4.442;2023-02-28T05:54:45;33.33;;;18.95;;
23608;SDS011;11982;50.810;4.442;2023-02-28T05:57:11;32.05;;;19.15;;
23608;SDS011;11982;50.810;4.442;2023-02-28T05:59:37;35.80;;;18.83;;
23608;SDS011;11982;50.810;4.442;2023-02-28T06:02:05;39.38;;;17.98;;
23608;SDS011;11982;50.810;4.442;2023-02-28T06:04:35;35.63;;;18.95;;
23608;SDS011;11982;50.810;4.442;2023-02-28T06:07:01;35.08;;;17.92;;
23608;SDS011;11982;50.810;4.442;2023-02-28T06:09:27;29.52;;;18.13;;
23608;SDS011;11982;50.810;4.442;2023-02-28T06:11:52;27.58;;;18.10;;
23608;SDS011;11982;50.810;4.442;2023-02-28T06:14:21;37.67;;;18.98;;
23608;SDS011;11982;50.810;4.442;2023-02-28T06:16:47;35.75;;;18.23;;
23608;SDS011;11982;50.810;4.442;2023-02-28T06:19:12;35.35;;;18.38;;
23608;SDS011;11982;50.810;4.442;2023-02-28T06:21:38;28.08;;;17.80;;
23608;SDS011;11982;50.810;4.442;2023-02-28T06:24:04;31.10;;;18.10;;
23608;SDS011;11982;50.810;4.442;2023-02-28T06:26:30;29.67;;;17.95;;
23608;SDS011;11982;50.810;4.442;2023-02-28T06:28:56;30.15;;;17.25;;
23608;SDS011;11982;50.810;4.442;2023-02-28T06:31:22;30.85;;;16.95;;
23608;SDS011;11982;50.810;4.442;2023-02-28T06:33:49;32.08;;;18.42;;
23608;SDS011;11982;50.810;4.442;2023-02-28T06:36:15;34.20;;;17.90;;
23608;SDS011;11982;50.810;4.442;2023-02-28T06:38:41;29.85;;;16.58;;
23608;SDS011;11982;50.810;4.442;2023-02-28T06:41:08;31.10;;;17.23;;
23608;SDS011;11982;50.810;4.442;2023-02-28T06:43:38;25.10;;;15.88;;
23608;SDS011;11982;50.810;4.442;2023-02-28T06:46:07;27.58;;;16.27;;
23608;SDS011;11982;50.810;4.442;2023-02-28T06:48:35;30.95;;;16.55;;
23608;SDS011;11982;50.810;4.442;2023-02-28T06:51:19;28.38;;;15.73;;
23608;SDS011;11982;50.810;4.442;2023-02-28T06:53:47;28.52;;;15.02;;
23608;SDS011;11982;50.810;4.442;2023-02-28T06:56:13;26.02;;;16.23;;
23608;SDS011;11982;50.810;4.442;2023-02-28T06:58:40;29.45;;;15.73;;
23608;SDS011;11982;50.810;4.442;2023-02-28T07:01:14;30.92;;;17.58;;
23608;SDS011;11982;50.810;4.442;2023-02-28T07:04:05;37.85;;;17.02;;
23608;SDS011;11982;50.810;4.442;2023-02-28T07:06:32;25.48;;;15.23;;
23608;SDS011;11982;50.810;4.442;2023-02-28T07:08:58;26.23;;;16.00;;
23608;SDS011;11982;50.810;4.442;2023-02-28T07:11:25;23.25;;;15.18;;
23608;SDS011;11982;50.810;4.442;2023-02-28T07:13:55;27.42;;;17.85;;
23608;SDS011;11982;50.810;4.442;2023-02-28T07:16:22;28.05;;;15.50;;
23608;SDS011;11982;50.810;4.442;2023-02-28T07:18:49;29.83;;;15.63;;
23608;SDS011;11982;50.810;4.442;2023-02-28T07:21:15;30.80;;;15.45;;
23608;SDS011;11982;50.810;4.442;2023-02-28T07:23:41;31.23;;;16.08;;
23608;SDS011;11982;50.810;4.442;2023-02-28T07:26:07;24.73;;;16.00;;
23608;SDS011;11982;50.810;4.442;2023-02-28T07:28:39;33.08;;;16.35;;
23608;SDS011;11982;50.810;4.442;2023-02-28T07:31:06;30.02;;;15.13;;
23608;SDS011;11982;50.810;4.442;2023-02-28T07:33:33;32.95;;;15.30;;
23608;SDS011;11982;50.810;4.442;2023-02-28T07:36:05;28.58;;;14.82;;
23608;SDS011;11982;50.810;4.442;2023-02-28T07:38:34;33.05;;;15.40;;
23608;SDS011;11982;50.810;4.442;2023-02-28T07:41:01;26.58;;;15.45;;
23608;SDS011;11982;50.810;4.442;2023-02-28T07:43:29;33.42;;;15.50;;
23608;SDS011;11982;50.810;4.442;2023-02-28T07:46:09;26.67;;;14.20;;
23608;SDS011;11982;50.810;4.442;2023-02-28T07:48:36;25.48;;;14.50;;
23608;SDS011;11982;50.810;4.442;2023-02-28T07:51:02;29.92;;;14.65;;
23608;SDS011;11982;50.810;4.442;2023-02-28T07:53:28;28.98;;;15.13;;
23608;SDS011;11982;50.810;4.442;2023-02-28T07:55:55;27.83;;;14.10;;
23608;SDS011;11982;50.810;4.442;2023-02-28T07:58:22;27.40;;;13.45;;
23608;SDS011;11982;50.810;4.442;2023-02-28T08:00:48;25.83;;;12.75;;
23608;SDS011;11982;50.810;4.442;2023-02-28T08:05:59;19.75;;;11.75;;
23608;SDS011;11982;50.810;4.442;2023-02-28T08:08:24;25.92;;;13.02;;
23608;SDS011;11982;50.810;4.442;2023-02-28T08:10:54;20.40;;;12.18;;
23608;SDS011;11982;50.810;4.442;2023-02-28T08:13:19;19.98;;;11.20;;
23608;SDS011;11982;50.810;4.442;2023-02-28T08:15:45;24.98;;;11.30;;
23608;SDS011;11982;50.810;4.442;2023-02-28T08:18:12;20.73;;;9.68;;
23608;SDS011;11982;50.810;4.442;2023-02-28T08:20:38;16.85;;;10.82;;
23608;SDS011;11982;50.810;4.442;2023-02-28T08:23:03;20.65;;;10.57;;
23608;SDS011;11982;50.810;4.442;2023-02-28T08:25:29;19.40;;;10.63;;
23608;SDS011;11982;50.810;4.442;2023-02-28T08:27:55;16.88;;;9.40;;
23608;SDS011;11982;50.810;4.442;2023-02-28T08:33:11;20.60;;;8.68;;
23608;SDS011;11982;50.810;4.442;2023-02-28T08:35:37;16.42;;;9.13;;
23608;SDS011;11982;50.810;4.442;2023-02-28T08:38:03;15.18;;;9.38;;
23608;SDS011;11982;50.810;4.442;2023-02-28T08:40:29;26.02;;;8.88;;
23608;SDS011;11982;50.810;4.442;2023-02-28T08:42:55;13.68;;;8.52;;
23608;SDS011;11982;50.810;4.442;2023-02-28T08:45:20;18.02;;;8.55;;
23608;SDS011;11982;50.810;4.442;2023-02-28T08:47:46;17.92;;;9.07;;
23608;SDS011;11982;50.810;4.442;2023-02-28T08:50:12;12.88;;;8.73;;
23608;SDS011;11982;50.810;4.442;2023-02-28T08:52:41;16.50;;;9.20;;
23608;SDS011;11982;50.810;4.442;2023-02-28T08:55:08;18.30;;;8.80;;
23608;SDS011;11982;50.810;4.442;2023-02-28T08:57:34;16.08;;;8.65;;
23608;SDS011;11982;50.810;4.442;2023-02-28T09:00:00;14.65;;;7.75;;
23608;SDS011;11982;50.810;4.442;2023-02-28T09:02:29;13.38;;;7.38;;
23608;SDS011;11982;50.810;4.442;2023-02-28T09:04:56;17.77;;;7.70;;
23608;SDS011;11982;50.810;4.442;2023-02-28T09:07:23;14.98;;;6.90;;
23608;SDS011;11982;50.810;4.442;2023-02-28T09:09:49;13.57;;;7.70;;
23608;SDS011;11982;50.810;4.442;2023-02-28T09:12:21;14.30;;;6.90;;
23608;SDS011;11982;50.810;4.442;2023-02-28T09:14:48;15.65;;;6.80;;
23608;SDS011;11982;50.810;4.442;2023-02-28T09:17:14;13.00;;;6.45;;
23608;SDS011;11982;50.810;4.442;2023-02-28T09:19:40;11.55;;;6.03;;
23608;SDS011;11982;50.810;4.442;2023-02-28T09:22:06;13.60;;;6.13;;
23608;SDS011;11982;50.810;4.442;2023-02-28T09:24:31;10.55;;;6.35;;
23608;SDS011;11982;50.810;4.442;2023-02-28T09:26:57;11.82;;;6.22;;
23608;SDS011;11982;50.810;4.442;2023-02-28T09:29:23;16.55;;;6.65;;
23608;SDS011;11982;50.810;4.442;2023-02-28T09:31:48;10.80;;;6.05;;
23608;SDS011;11982;50.810;4.442;2023-02-28T09:34:15;11.52;;;6.25;;
23608;SDS011;11982;50.810;4.442;2023-02-28T09:36:42;14.55;;;6.43;;
23608;SDS011;11982;50.810;4.442;2023-02-28T09:39:08;9.15;;;5.80;;
23608;SDS011;11982;50.810;4.442;2023-02-28T09:41:41;10.88;;;6.25;;
23608;SDS011;11982;50.810;4.442;2023-02-28T09:47:32;7.80;;;5.25;;
23608;SDS011;11982;50.810;4.442;2023-02-28T09:50:16;8.32;;;5.68;;
23608;SDS011;11982;50.810;4.442;2023-02-28T09:52:43;11.85;;;4.93;;
23608;SDS011;11982;50.810;4.442;2023-02-28T09:57:41;7.03;;;4.57;;
23608;SDS011;11982;50.810;4.442;2023-02-28T10:06:06;7.55;;;5.00;;
23608;SDS011;11982;50.810;4.442;2023-02-28T10:08:37;7.72;;;4.53;;
23608;SDS011;11982;50.810;4.442;2023-02-28T10:11:14;7.45;;;4.13;;
23608;SDS011;11982;50.810;4.442;2023-02-28T10:16:34;10.65;;;4.40;;
23608;SDS011;11982;50.810;4.442;2023-02-28T10:21:43;6.85;;;4.00;;
23608;SDS011;11982;50.810;4.442;2023-02-28T10:26:41;5.72;;;3.65;;
23608;SDS011;11982;50.810;4.442;2023-02-28T10:29:10;10.05;;;3.22;;
23608;SDS011;11982;50.810;4.442;2023-02-28T10:31:36;6.28;;;3.45;;
23608;SDS011;11982;50.810;4.442;2023-02-28T10:34:03;6.57;;;3.45;;
23608;SDS011;11982;50.810;4.442;2023-02-28T10:36:31;4.15;;;2.70;;
23608;SDS011;11982;50.810;4.442;2023-02-28T10:38:58;4.90;;;3.10;;
23608;SDS011;11982;50.810;4.442;2023-02-28T10:50:04;4.45;;;3.20;;
23608;SDS011;11982;50.810;4.442;2023-02-28T10:52:35;5.85;;;3.35;;
23608;SDS011;11982;50.810;4.442;2023-02-28T10:55:19;5.03;;;3.42;;
23608;SDS011;11982;50.810;4.442;2023-02-28T10:57:47;5.97;;;3.28;;
23608;SDS011;11982;50.810;4.442;2023-02-28T11:00:15;5.45;;;3.33;;
23608;SDS011;11982;50.810;4.442;2023-02-28T11:02:43;8.15;;;3.67;;
23608;SDS011;11982;50.810;4.442;2023-02-28T11:05:30;5.57;;;3.70;;
23608;SDS011;11982;50.810;4.442;2023-02-28T11:08:12;5.75;;;3.45;;
23608;SDS011;11982;50.810;4.442;2023-02-28T11:10:44;5.97;;;3.40;;
23608;SDS011;11982;50.810;4.442;2023-02-28T11:13:19;4.65;;;3.22;;
23608;SDS011;11982;50.810;4.442;2023-02-28T11:15:59;4.53;;;2.85;;
23608;SDS011;11982;50.810;4.442;2023-02-28T11:18:29;6.00;;;2.92;;
23608;SDS011;11982;50.810;4.442;2023-02-28T11:21:01;5.72;;;3.15;;
23608;SDS011;11982;50.810;4.442;2023-02-28T11:23:28;5.22;;;3.50;;
23608;SDS011;11982;50.810;4.442;2023-02-28T11:25:59;6.32;;;3.35;;
23608;SDS011;11982;50.810;4.442;2023-02-28T11:28:31;5.65;;;3.15;;
23608;SDS011;11982;50.810;4.442;2023-02-28T11:36:11;6.40;;;3.72;;
23608;SDS011;11982;50.810;4.442;2023-02-28T11:38:39;5.50;;;3.67;;
23608;SDS011;11982;50.810;4.442;2023-02-28T11:41:10;6.30;;;4.10;;
23608;SDS011;11982;50.810;4.442;2023-02-28T11:44:15;6.40;;;4.28;;
23608;SDS011;11982;50.810;4.442;2023-02-28T11:46:51;6.47;;;4.20;;
23608;SDS011;11982;50.810;4.442;2023-02-28T12:00:53;6.80;;;4.00;;
23608;SDS011;11982;50.810;4.442;2023-02-28T12:03:28;6.40;;;3.60;;
23608;SDS011;11982;50.810;4.442;2023-02-28T12:19:19;4.65;;;3.22;;
23608;SDS011;11982;50.810;4.442;2023-02-28T12:27:00;7.18;;;3.70;;
23608;SDS011;11982;50.810;4.442;2023-02-28T12:29:32;5.95;;;3.50;;
23608;SDS011;11982;50.810;4.442;2023-02-28T12:32:16;6.47;;;3.20;;
23608;SDS011;11982;50.810;4.442;2023-02-28T12:35:06;4.72;;;2.92;;
23608;SDS011;11982;50.810;4.442;2023-02-28T12:40:16;3.65;;;3.00;;
23608;SDS011;11982;50.810;4.442;2023-02-28T12:43:02;4.90;;;3.50;;
23608;SDS011;11982;50.810;4.442;2023-02-28T12:48:19;9.02;;;3.90;;
23608;SDS011;11982;50.810;4.442;2023-02-28T12:50:49;5.57;;;3.58;;
23608;SDS011;11982;50.810;4.442;2023-02-28T12:53:23;6.85;;;3.90;;
23608;SDS011;11982;50.810;4.442;2023-02-28T12:56:43;5.97;;;3.75;;
23608;SDS011;11982;50.810;4.442;2023-02-28T13:10:48;6.53;;;3.65;;
23608;SDS011;11982;50.810;4.442;2023-02-28T13:13:19;6.38;;;3.53;;
23608;SDS011;11982;50.810;4.442;2023-02-28T13:15:59;4.38;;;3.28;;
23608;SDS011;11982;50.810;4.442;2023-02-28T13:18:37;4.15;;;3.55;;
23608;SDS011;11982;50.810;4.442;2023-02-28T13:21:05;3.67;;;3.17;;
23608;SDS011;11982;50.810;4.442;2023-02-28T13:34:30;10.40;;;4.55;;
23608;SDS011;11982;50.810;4.442;2023-02-28T13:39:49;6.07;;;4.03;;
23608;SDS011;11982;50.810;4.442;2023-02-28T14:01:59;4.35;;;3.10;;
23608;SDS011;11982;50.810;4.442;2023-02-28T14:07:08;4.82;;;3.80;;
23608;SDS011;11982;50.810;4.442;2023-02-28T14:09:45;5.53;;;3.47;;
23608;SDS011;11982;50.810;4.442;2023-02-28T14:15:27;5.50;;;3.58;;
23608;SDS011;11982;50.810;4.442;2023-02-28T14:37:36;6.72;;;4.13;;
23608;SDS011;11982;50.810;4.442;2023-02-28T14:40:11;6.60;;;5.15;;
23608;SDS011;11982;50.810;4.442;2023-02-28T14:42:46;5.43;;;3.83;;
23608;SDS011;11982;50.810;4.442;2023-02-28T14:45:19;6.40;;;3.70;;
23608;SDS011;11982;50.810;4.442;2023-02-28T14:47:46;5.38;;;3.60;;
23608;SDS011;11982;50.810;4.442;2023-02-28T14:50:17;5.60;;;3.88;;
23608;SDS011;11982;50.810;4.442;2023-02-28T14:52:45;7.00;;;4.43;;
23608;SDS011;11982;50.810;4.442;2023-02-28T14:55:15;8.43;;;4.50;;
23608;SDS011;11982;50.810;4.442;2023-02-28T15:00:48;6.63;;;3.83;;
23608;SDS011;11982;50.810;4.442;2023-02-28T15:11:47;8.07;;;4.30;;
23608;SDS011;11982;50.810;4.442;2023-02-28T15:14:37;8.38;;;4.28;;
23608;SDS011;11982;50.810;4.442;2023-02-28T15:17:17;5.97;;;4.05;;
23608;SDS011;11982;50.810;4.442;2023-02-28T15:19:48;7.65;;;3.33;;
23608;SDS011;11982;50.810;4.442;2023-02-28T15:22:26;5.85;;;4.63;;
23608;SDS011;11982;50.810;4.442;2023-02-28T15:25:13;5.00;;;4.00;;
23608;SDS011;11982;50.810;4.442;2023-02-28T15:28:18;7.97;;;4.30;;
23608;SDS011;11982;50.810;4.442;2023-02-28T15:30:53;6.25;;;4.38;;
23608;SDS011;11982;50.810;4.442;2023-02-28T15:33:22;6.00;;;4.43;;
23608;SDS011;11982;50.810;4.442;2023-02-28T15:35:50;5.28;;;4.20;;
23608;SDS011;11982;50.810;4.442;2023-02-28T15:38:25;5.85;;;4.32;;
23608;SDS011;11982;50.810;4.442;2023-02-28T15:40:56;6.50;;;4.30;;
23608;SDS011;11982;50.810;4.442;2023-02-28T15:48:59;5.65;;;4.35;;
23608;SDS011;11982;50.810;4.442;2023-02-28T15:51:29;5.72;;;4.20;;
23608;SDS011;11982;50.810;4.442;2023-02-28T15:59:15;6.88;;;4.30;;
23608;SDS011;11982;50.810;4.442;2023-02-28T16:01:44;6.45;;;4.20;;
23608;SDS011;11982;50.810;4.442;2023-02-28T16:06:59;8.30;;;4.50;;
23608;SDS011;11982;50.810;4.442;2023-02-28T16:09:29;5.63;;;4.28;;
23608;SDS011;11982;50.810;4.442;2023-02-28T16:11:56;8.00;;;4.13;;
23608;SDS011;11982;50.810;4.442;2023-02-28T16:14:29;11.25;;;4.55;;
23608;SDS011;11982;50.810;4.442;2023-02-28T16:16:56;8.50;;;4.35;;
23608;SDS011;11982;50.810;4.442;2023-02-28T16:19:28;8.02;;;4.60;;
23608;SDS011;11982;50.810;4.442;2023-02-28T16:21:54;15.02;;;9.23;;
23608;SDS011;11982;50.810;4.442;2023-02-28T16:24:19;7.35;;;4.82;;
23608;SDS011;11982;50.810;4.442;2023-02-28T16:26:46;16.83;;;10.30;;
23608;SDS011;11982;50.810;4.442;2023-02-28T16:29:14;10.10;;;6.95;;
23608;SDS011;11982;50.810;4.442;2023-02-28T16:31:53;9.05;;;6.15;;
23608;SDS011;11982;50.810;4.442;2023-02-28T16:34:19;9.80;;;4.43;;
23608;SDS011;11982;50.810;4.442;2023-02-28T16:36:48;7.38;;;4.43;;
23608;SDS011;11982;50.810;4.442;2023-02-28T16:39:15;15.73;;;9.93;;
23608;SDS011;11982;50.810;4.442;2023-02-28T16:41:44;10.50;;;6.60;;
23608;SDS011;11982;50.810;4.442;2023-02-28T16:44:13;7.50;;;4.57;;
23608;SDS011;11982;50.810;4.442;2023-02-28T16:47:01;7.05;;;4.28;;
23608;SDS011;11982;50.810;4.442;2023-02-28T16:49:27;13.15;;;4.70;;
23608;SDS011;11982;50.810;4.442;2023-02-28T16:54:40;11.23;;;7.45;;
23608;SDS011;11982;50.810;4.442;2023-02-28T16:59:58;8.68;;;4.93;;
23608;SDS011;11982;50.810;4.442;2023-02-28T17:02:25;8.88;;;4.85;;
23608;SDS011;11982;50.810;4.442;2023-02-28T17:04:57;8.15;;;5.40;;
23608;SDS011;11982;50.810;4.442;2023-02-28T17:07:26;5.85;;;4.40;;
23608;SDS011;11982;50.810;4.442;2023-02-28T17:09:51;7.22;;;4.68;;
23608;SDS011;11982;50.810;4.442;2023-02-28T17:12:17;8.05;;;4.80;;
23608;SDS011;11982;50.810;4.442;2023-02-28T17:14:43;10.80;;;4.70;;
23608;SDS011;11982;50.810;4.442;2023-02-28T17:17:10;10.93;;;5.03;;
23608;SDS011;11982;50.810;4.442;2023-02-28T17:19:42;9.18;;;5.03;;
23608;SDS011;11982;50.810;4.442;2023-02-28T17:22:09;9.77;;;4.68;;
23608;SDS011;11982;50.810;4.442;2023-02-28T17:24:40;10.02;;;5.47;;
23608;SDS011;11982;50.810;4.442;2023-02-28T17:27:28;9.35;;;4.28;;
23608;SDS011;11982;50.810;4.442;2023-02-28T17:29:54;9.93;;;4.85;;
23608;SDS011;11982;50.810;4.442;2023-02-28T17:32:19;10.48;;;4.35;;
23608;SDS011;11982;50.810;4.442;2023-02-28T17:34:45;8.25;;;4.93;;
23608;SDS011;11982;50.810;4.442;2023-02-28T17:37:11;8.50;;;4.18;;
23608;SDS011;11982;50.810;4.442;2023-02-28T17:39:36;6.95;;;4.57;;
23608;SDS011;11982;50.810;4.442;2023-02-28T17:42:02;11.55;;;5.28;;
23608;SDS011;11982;50.810;4.442;2023-02-28T17:44:28;7.15;;;4.65;;
23608;SDS011;11982;50.810;4.442;2023-02-28T17:46:54;10.18;;;5.68;;
23608;SDS011;11982;50.810;4.442;2023-02-28T17:49:21;8.38;;;5.15;;
23608;SDS011;11982;50.810;4.442;2023-02-28T17:51:47;10.43;;;4.95;;
23608;SDS011;11982;50.810;4.442;2023-02-28T17:54:13;13.65;;;7.13;;
23608;SDS011;11982;50.810;4.442;2023-02-28T17:56:39;9.60;;;7.28;;
23608;SDS011;11982;50.810;4.442;2023-02-28T18:02:00;8.65;;;5.00;;
23608;SDS011;11982;50.810;4.442;2023-02-28T18:04:25;7.43;;;4.93;;
23608;SDS011;11982;50.810;4.442;2023-02-28T18:06:52;10.73;;;4.80;;
23608;SDS011;11982;50.810;4.442;2023-02-28T18:09:22;10.85;;;5.25;;
23608;SDS011;11982;50.810;4.442;2023-02-28T18:11:51;7.97;;;4.53;;
23608;SDS011;11982;50.810;4.442;2023-02-28T18:14:19;10.20;;;5.07;;
23608;SDS011;11982;50.810;4.442;2023-02-28T18:16:48;7.38;;;4.85;;